sensor_id;sensor_type;location;lat;lon;timestamp;P1;durP1;ratioP1;P2;durP2;ratioP2
22614;SDS011;11474;50.790;0.298;2023-02-25T00:02:13;19.40;;;3.60;;
22614;SDS011;11474;50.790;0.298;2023-02-25T00:04:39;15.70;;;3.25;;
22614;SDS011;11474;50.790;0.298;2023-02-25T00:07:06;15.90;;;3.28;;
22614;SDS011;11474;50.790;0.298;2023-02-25T00:09:32;15.43;;;3.13;;
22614;SDS011;11474;50.790;0.298;2023-02-25T00:11:58;15.05;;;3.08;;
22614;SDS011;11474;50.790;0.298;2023-02-25T00:14:24;13.05;;;2.83;;
22614;SDS011;11474;50.790;0.298;2023-02-25T00:16:50;23.30;;;3.17;;
22614;SDS011;11474;50.790;0.298;2023-02-25T00:19:20;14.90;;;2.80;;
22614;SDS011;11474;50.790;0.298;2023-02-25T00:21:46;15.23;;;3.20;;
22614;SDS011;11474;50.790;0.298;2023-02-25T00:24:13;16.73;;;3.30;;
22614;SDS011;11474;50.790;0.298;2023-02-25T00:26:39;14.10;;;3.10;;
22614;SDS011;11474;50.790;0.298;2023-02-25T00:29:05;13.52;;;2.90;;
22614;SDS011;11474;50.790;0.298;2023-02-25T00:31:31;17.08;;;3.15;;
22614;SDS011;11474;50.790;0.298;2023-02-25T00:33:57;13.27;;;2.97;;
22614;SDS011;11474;50.790;0.298;2023-02-25T00:36:24;13.30;;;3.20;;
22614;SDS011;11474;50.790;0.298;2023-02-25T00:38:54;20.02;;;3.30;;
22614;SDS011;11474;50.790;0.298;2023-02-25T00:41:23;18.27;;;3.30;;
22614;SDS011;11474;50.790;0.298;2023-02-25T00:43:59;15.57;;;3.45;;
22614;SDS011;11474;50.790;0.298;2023-02-25T00:46:26;14.45;;;3.05;;
22614;SDS011;11474;50.790;0.298;2023-02-25T00:48:53;14.43;;;3.33;;
22614;SDS011;11474;50.790;0.298;2023-02-25T00:51:23;17.02;;;3.67;;
22614;SDS011;11474;50.790;0.298;2023-02-25T00:53:52;16.17;;;3.43;;
22614;SDS011;11474;50.790;0.298;2023-02-25T00:56:18;21.65;;;4.00;;
22614;SDS011;11474;50.790;0.298;2023-02-25T00:58:45;14.52;;;3.50;;
22614;SDS011;11474;50.790;0.298;2023-02-25T01:01:22;15.55;;;3.15;;
22614;SDS011;11474;50.790;0.298;2023-02-25T01:03:48;14.57;;;3.83;;
22614;SDS011;11474;50.790;0.298;2023-02-25T01:06:15;14.85;;;3.42;;
22614;SDS011;11474;50.790;0.298;2023-02-25T01:08:41;11.55;;;3.00;;
22614;SDS011;11474;50.790;0.298;2023-02-25T01:11:11;17.33;;;3.70;;
22614;SDS011;11474;50.790;0.298;2023-02-25T01:13:38;14.55;;;3.05;;
22614;SDS011;11474;50.790;0.298;2023-02-25T01:16:12;17.73;;;3.40;;
22614;SDS011;11474;50.790;0.298;2023-02-25T01:18:39;16.02;;;3.55;;
22614;SDS011;11474;50.790;0.298;2023-02-25T01:21:05;13.38;;;3.60;;
22614;SDS011;11474;50.790;0.298;2023-02-25T01:23:31;18.70;;;3.38;;
22614;SDS011;11474;50.790;0.298;2023-02-25T01:25:57;12.98;;;2.92;;
22614;SDS011;11474;50.790;0.298;2023-02-25T01:28:23;11.55;;;3.13;;
22614;SDS011;11474;50.790;0.298;2023-02-25T01:30:49;13.77;;;3.22;;
22614;SDS011;11474;50.790;0.298;2023-02-25T01:33:15;13.15;;;3.50;;
22614;SDS011;11474;50.790;0.298;2023-02-25T01:35:41;12.90;;;3.33;;
22614;SDS011;11474;50.790;0.298;2023-02-25T01:38:07;14.48;;;3.00;;
22614;SDS011;11474;50.790;0.298;2023-02-25T01:40:33;15.55;;;3.28;;
22614;SDS011;11474;50.790;0.298;2023-02-25T01:42:59;16.85;;;3.70;;
22614;SDS011;11474;50.790;0.298;2023-02-25T01:45:27;14.80;;;3.08;;
22614;SDS011;11474;50.790;0.298;2023-02-25T01:47:55;14.00;;;3.20;;
22614;SDS011;11474;50.790;0.298;2023-02-25T01:50:25;14.55;;;3.47;;
22614;SDS011;11474;50.790;0.298;2023-02-25T01:52:54;17.23;;;3.65;;
22614;SDS011;11474;50.790;0.298;2023-02-25T01:55:21;17.30;;;3.95;;
22614;SDS011;11474;50.790;0.298;2023-02-25T01:57:50;16.38;;;3.42;;
22614;SDS011;11474;50.790;0.298;2023-02-25T02:00:16;17.10;;;3.20;;
22614;SDS011;11474;50.790;0.298;2023-02-25T02:02:43;17.67;;;3.45;;
22614;SDS011;11474;50.790;0.298;2023-02-25T02:05:10;20.77;;;3.80;;
22614;SDS011;11474;50.790;0.298;2023-02-25T02:07:36;16.63;;;3.70;;
22614;SDS011;11474;50.790;0.298;2023-02-25T02:10:03;13.85;;;3.00;;
22614;SDS011;11474;50.790;0.298;2023-02-25T02:12:33;13.75;;;3.30;;
22614;SDS011;11474;50.790;0.298;2023-02-25T02:15:01;17.05;;;2.85;;
22614;SDS011;11474;50.790;0.298;2023-02-25T02:17:30;13.70;;;3.22;;
22614;SDS011;11474;50.790;0.298;2023-02-25T02:22:40;12.77;;;3.00;;
22614;SDS011;11474;50.790;0.298;2023-02-25T02:27:50;15.63;;;3.45;;
22614;SDS011;11474;50.790;0.298;2023-02-25T02:30:27;12.80;;;3.67;;
22614;SDS011;11474;50.790;0.298;2023-02-25T02:35:28;18.30;;;3.55;;
22614;SDS011;11474;50.790;0.298;2023-02-25T02:38:02;21.63;;;3.67;;
22614;SDS011;11474;50.790;0.298;2023-02-25T02:40:37;13.13;;;3.13;;
22614;SDS011;11474;50.790;0.298;2023-02-25T02:43:08;20.85;;;4.05;;
22614;SDS011;11474;50.790;0.298;2023-02-25T02:45:50;22.63;;;4.32;;
22614;SDS011;11474;50.790;0.298;2023-02-25T02:48:24;16.98;;;4.10;;
22614;SDS011;11474;50.790;0.298;2023-02-25T02:50:55;16.83;;;4.40;;
22614;SDS011;11474;50.790;0.298;2023-02-25T02:53:31;15.05;;;3.75;;
22614;SDS011;11474;50.790;0.298;2023-02-25T02:55:59;19.08;;;4.20;;
22614;SDS011;11474;50.790;0.298;2023-02-25T02:58:28;17.20;;;4.47;;
22614;SDS011;11474;50.790;0.298;2023-02-25T03:00:57;23.17;;;5.68;;
22614;SDS011;11474;50.790;0.298;2023-02-25T03:03:26;18.47;;;4.23;;
22614;SDS011;11474;50.790;0.298;2023-02-25T03:06:00;17.45;;;4.90;;
22614;SDS011;11474;50.790;0.298;2023-02-25T03:08:27;22.05;;;5.10;;
22614;SDS011;11474;50.790;0.298;2023-02-25T03:10:54;21.63;;;5.30;;
22614;SDS011;11474;50.790;0.298;2023-02-25T03:13:20;23.60;;;5.68;;
22614;SDS011;11474;50.790;0.298;2023-02-25T03:15:46;20.30;;;5.55;;
22614;SDS011;11474;50.790;0.298;2023-02-25T03:18:16;19.60;;;5.15;;
22614;SDS011;11474;50.790;0.298;2023-02-25T03:20:44;21.98;;;5.28;;
22614;SDS011;11474;50.790;0.298;2023-02-25T03:23:13;18.17;;;5.28;;
22614;SDS011;11474;50.790;0.298;2023-02-25T03:25:41;14.95;;;4.80;;
22614;SDS011;11474;50.790;0.298;2023-02-25T03:28:30;20.38;;;5.45;;
22614;SDS011;11474;50.790;0.298;2023-02-25T03:30:59;17.00;;;5.28;;
22614;SDS011;11474;50.790;0.298;2023-02-25T03:35:53;20.58;;;5.28;;
22614;SDS011;11474;50.790;0.298;2023-02-25T03:38:21;16.27;;;5.17;;
22614;SDS011;11474;50.790;0.298;2023-02-25T03:40:49;17.88;;;5.00;;
22614;SDS011;11474;50.790;0.298;2023-02-25T03:43:17;21.05;;;5.38;;
22614;SDS011;11474;50.790;0.298;2023-02-25T03:45:45;18.17;;;5.30;;
22614;SDS011;11474;50.790;0.298;2023-02-25T03:48:12;20.77;;;5.63;;
22614;SDS011;11474;50.790;0.298;2023-02-25T03:50:39;22.30;;;5.72;;
22614;SDS011;11474;50.790;0.298;2023-02-25T03:53:07;20.13;;;6.00;;
22614;SDS011;11474;50.790;0.298;2023-02-25T03:55:33;21.67;;;5.50;;
22614;SDS011;11474;50.790;0.298;2023-02-25T03:57:59;19.05;;;5.97;;
22614;SDS011;11474;50.790;0.298;2023-02-25T04:00:27;16.27;;;5.85;;
22614;SDS011;11474;50.790;0.298;2023-02-25T04:02:53;16.88;;;5.30;;
22614;SDS011;11474;50.790;0.298;2023-02-25T04:05:20;16.90;;;5.50;;
22614;SDS011;11474;50.790;0.298;2023-02-25T04:07:46;15.77;;;5.37;;
22614;SDS011;11474;50.790;0.298;2023-02-25T04:10:13;18.35;;;5.00;;
22614;SDS011;11474;50.790;0.298;2023-02-25T04:12:39;24.58;;;5.70;;
22614;SDS011;11474;50.790;0.298;2023-02-25T04:15:05;22.67;;;6.13;;
22614;SDS011;11474;50.790;0.298;2023-02-25T04:17:32;22.35;;;6.03;;
22614;SDS011;11474;50.790;0.298;2023-02-25T04:19:58;22.95;;;6.35;;
22614;SDS011;11474;50.790;0.298;2023-02-25T04:22:24;17.87;;;5.77;;
22614;SDS011;11474;50.790;0.298;2023-02-25T04:24:50;21.92;;;6.55;;
22614;SDS011;11474;50.790;0.298;2023-02-25T04:27:16;19.85;;;6.05;;
22614;SDS011;11474;50.790;0.298;2023-02-25T04:29:42;19.60;;;6.38;;
22614;SDS011;11474;50.790;0.298;2023-02-25T04:32:09;19.35;;;6.43;;
22614;SDS011;11474;50.790;0.298;2023-02-25T04:34:35;19.45;;;5.82;;
22614;SDS011;11474;50.790;0.298;2023-02-25T04:37:02;15.75;;;6.10;;
22614;SDS011;11474;50.790;0.298;2023-02-25T04:39:29;19.25;;;6.30;;
22614;SDS011;11474;50.790;0.298;2023-02-25T04:41:55;18.50;;;6.13;;
22614;SDS011;11474;50.790;0.298;2023-02-25T04:44:21;18.23;;;6.15;;
22614;SDS011;11474;50.790;0.298;2023-02-25T04:46:47;18.20;;;5.75;;
22614;SDS011;11474;50.790;0.298;2023-02-25T04:49:16;19.88;;;6.03;;
22614;SDS011;11474;50.790;0.298;2023-02-25T04:51:42;16.77;;;5.90;;
22614;SDS011;11474;50.790;0.298;2023-02-25T04:54:08;21.00;;;5.93;;
22614;SDS011;11474;50.790;0.298;2023-02-25T04:56:35;18.93;;;5.57;;
22614;SDS011;11474;50.790;0.298;2023-02-25T04:59:01;16.83;;;5.67;;
22614;SDS011;11474;50.790;0.298;2023-02-25T05:01:27;16.45;;;6.03;;
22614;SDS011;11474;50.790;0.298;2023-02-25T05:03:55;19.23;;;5.95;;
22614;SDS011;11474;50.790;0.298;2023-02-25T05:06:23;16.88;;;5.72;;
22614;SDS011;11474;50.790;0.298;2023-02-25T05:08:49;20.00;;;6.30;;
22614;SDS011;11474;50.790;0.298;2023-02-25T05:11:15;16.77;;;5.82;;
22614;SDS011;11474;50.790;0.298;2023-02-25T05:13:42;17.00;;;6.07;;
22614;SDS011;11474;50.790;0.298;2023-02-25T05:16:09;18.05;;;6.20;;
22614;SDS011;11474;50.790;0.298;2023-02-25T05:18:36;21.30;;;6.38;;
22614;SDS011;11474;50.790;0.298;2023-02-25T05:21:03;13.02;;;5.70;;
22614;SDS011;11474;50.790;0.298;2023-02-25T05:23:30;17.38;;;6.07;;
22614;SDS011;11474;50.790;0.298;2023-02-25T05:25:56;18.55;;;6.35;;
22614;SDS011;11474;50.790;0.298;2023-02-25T05:28:24;16.50;;;5.93;;
22614;SDS011;11474;50.790;0.298;2023-02-25T05:30:50;18.58;;;5.90;;
22614;SDS011;11474;50.790;0.298;2023-02-25T05:33:16;20.40;;;6.20;;
22614;SDS011;11474;50.790;0.298;2023-02-25T05:35:43;22.77;;;6.05;;
22614;SDS011;11474;50.790;0.298;2023-02-25T05:38:09;23.15;;;5.90;;
22614;SDS011;11474;50.790;0.298;2023-02-25T05:40:37;17.02;;;5.82;;
22614;SDS011;11474;50.790;0.298;2023-02-25T05:43:03;22.05;;;6.22;;
22614;SDS011;11474;50.790;0.298;2023-02-25T05:45:29;19.63;;;6.05;;
22614;SDS011;11474;50.790;0.298;2023-02-25T05:47:55;21.98;;;6.00;;
22614;SDS011;11474;50.790;0.298;2023-02-25T05:50:21;15.88;;;6.32;;
22614;SDS011;11474;50.790;0.298;2023-02-25T05:52:47;20.95;;;6.35;;
22614;SDS011;11474;50.790;0.298;2023-02-25T05:55:13;15.73;;;6.67;;
22614;SDS011;11474;50.790;0.298;2023-02-25T05:57:40;24.38;;;6.20;;
22614;SDS011;11474;50.790;0.298;2023-02-25T06:00:07;19.50;;;6.00;;
22614;SDS011;11474;50.790;0.298;2023-02-25T06:02:39;16.98;;;5.75;;
22614;SDS011;11474;50.790;0.298;2023-02-25T06:05:05;21.48;;;5.70;;
22614;SDS011;11474;50.790;0.298;2023-02-25T06:07:31;18.85;;;5.45;;
22614;SDS011;11474;50.790;0.298;2023-02-25T06:09:58;16.35;;;6.13;;
22614;SDS011;11474;50.790;0.298;2023-02-25T06:12:27;23.30;;;6.30;;
22614;SDS011;11474;50.790;0.298;2023-02-25T06:14:54;21.67;;;5.70;;
22614;SDS011;11474;50.790;0.298;2023-02-25T06:17:20;18.45;;;5.32;;
22614;SDS011;11474;50.790;0.298;2023-02-25T06:19:46;15.45;;;5.22;;
22614;SDS011;11474;50.790;0.298;2023-02-25T06:22:12;13.02;;;4.70;;
22614;SDS011;11474;50.790;0.298;2023-02-25T06:24:38;20.05;;;5.20;;
22614;SDS011;11474;50.790;0.298;2023-02-25T06:27:04;20.33;;;5.30;;
22614;SDS011;11474;50.790;0.298;2023-02-25T06:29:30;19.85;;;5.10;;
22614;SDS011;11474;50.790;0.298;2023-02-25T06:31:56;13.73;;;5.10;;
22614;SDS011;11474;50.790;0.298;2023-02-25T06:34:22;18.27;;;5.25;;
22614;SDS011;11474;50.790;0.298;2023-02-25T06:36:48;20.00;;;5.15;;
22614;SDS011;11474;50.790;0.298;2023-02-25T06:39:15;16.23;;;5.13;;
22614;SDS011;11474;50.790;0.298;2023-02-25T06:41:41;17.13;;;5.23;;
22614;SDS011;11474;50.790;0.298;2023-02-25T06:44:07;14.52;;;5.07;;
22614;SDS011;11474;50.790;0.298;2023-02-25T06:46:33;16.48;;;4.78;;
22614;SDS011;11474;50.790;0.298;2023-02-25T06:49:01;18.27;;;4.55;;
22614;SDS011;11474;50.790;0.298;2023-02-25T06:51:27;14.38;;;5.20;;
22614;SDS011;11474;50.790;0.298;2023-02-25T06:53:53;16.67;;;5.07;;
22614;SDS011;11474;50.790;0.298;2023-02-25T06:56:20;14.77;;;4.55;;
22614;SDS011;11474;50.790;0.298;2023-02-25T06:58:47;15.63;;;4.90;;
22614;SDS011;11474;50.790;0.298;2023-02-25T07:01:14;13.73;;;4.60;;
22614;SDS011;11474;50.790;0.298;2023-02-25T07:03:40;15.75;;;4.63;;
22614;SDS011;11474;50.790;0.298;2023-02-25T07:06:10;20.17;;;4.90;;
22614;SDS011;11474;50.790;0.298;2023-02-25T07:08:38;16.80;;;4.40;;
22614;SDS011;11474;50.790;0.298;2023-02-25T07:11:20;16.23;;;4.90;;
22614;SDS011;11474;50.790;0.298;2023-02-25T07:13:51;13.32;;;4.10;;
22614;SDS011;11474;50.790;0.298;2023-02-25T07:16:17;14.77;;;4.40;;
22614;SDS011;11474;50.790;0.298;2023-02-25T07:18:43;16.47;;;4.50;;
22614;SDS011;11474;50.790;0.298;2023-02-25T07:21:10;15.52;;;4.50;;
22614;SDS011;11474;50.790;0.298;2023-02-25T07:23:40;22.50;;;4.20;;
22614;SDS011;11474;50.790;0.298;2023-02-25T07:26:06;15.27;;;4.10;;
22614;SDS011;11474;50.790;0.298;2023-02-25T07:28:33;17.05;;;4.28;;
22614;SDS011;11474;50.790;0.298;2023-02-25T07:31:00;18.02;;;4.60;;
22614;SDS011;11474;50.790;0.298;2023-02-25T07:33:27;12.80;;;3.85;;
22614;SDS011;11474;50.790;0.298;2023-02-25T07:35:53;17.23;;;4.18;;
22614;SDS011;11474;50.790;0.298;2023-02-25T07:38:19;18.55;;;4.53;;
22614;SDS011;11474;50.790;0.298;2023-02-25T07:40:46;16.13;;;4.15;;
22614;SDS011;11474;50.790;0.298;2023-02-25T07:43:12;15.27;;;4.50;;
22614;SDS011;11474;50.790;0.298;2023-02-25T07:45:38;13.18;;;3.70;;
22614;SDS011;11474;50.790;0.298;2023-02-25T07:48:04;14.88;;;4.10;;
22614;SDS011;11474;50.790;0.298;2023-02-25T07:50:30;14.82;;;4.18;;
22614;SDS011;11474;50.790;0.298;2023-02-25T07:52:56;15.57;;;4.43;;
22614;SDS011;11474;50.790;0.298;2023-02-25T07:55:23;19.33;;;4.30;;
22614;SDS011;11474;50.790;0.298;2023-02-25T07:57:49;15.90;;;4.00;;
22614;SDS011;11474;50.790;0.298;2023-02-25T08:00:15;15.13;;;4.05;;
22614;SDS011;11474;50.790;0.298;2023-02-25T08:02:42;16.08;;;4.20;;
22614;SDS011;11474;50.790;0.298;2023-02-25T08:05:08;15.07;;;4.20;;
22614;SDS011;11474;50.790;0.298;2023-02-25T08:07:34;15.10;;;4.32;;
22614;SDS011;11474;50.790;0.298;2023-02-25T08:10:00;15.50;;;4.85;;
22614;SDS011;11474;50.790;0.298;2023-02-25T08:12:26;17.50;;;3.92;;
22614;SDS011;11474;50.790;0.298;2023-02-25T08:14:52;18.13;;;4.20;;
22614;SDS011;11474;50.790;0.298;2023-02-25T08:17:19;14.98;;;3.90;;
22614;SDS011;11474;50.790;0.298;2023-02-25T08:19:45;16.30;;;4.40;;
22614;SDS011;11474;50.790;0.298;2023-02-25T08:22:11;17.42;;;4.78;;
22614;SDS011;11474;50.790;0.298;2023-02-25T08:24:38;15.93;;;4.40;;
22614;SDS011;11474;50.790;0.298;2023-02-25T08:27:04;15.90;;;4.20;;
22614;SDS011;11474;50.790;0.298;2023-02-25T08:29:32;14.80;;;3.85;;
22614;SDS011;11474;50.790;0.298;2023-02-25T08:31:58;15.98;;;4.00;;
22614;SDS011;11474;50.790;0.298;2023-02-25T08:34:24;16.98;;;4.00;;
22614;SDS011;11474;50.790;0.298;2023-02-25T08:36:50;16.58;;;3.90;;
22614;SDS011;11474;50.790;0.298;2023-02-25T08:39:16;17.90;;;4.22;;
22614;SDS011;11474;50.790;0.298;2023-02-25T08:41:42;21.00;;;4.40;;
22614;SDS011;11474;50.790;0.298;2023-02-25T08:44:09;14.02;;;4.57;;
22614;SDS011;11474;50.790;0.298;2023-02-25T08:46:35;15.75;;;4.10;;
22614;SDS011;11474;50.790;0.298;2023-02-25T08:49:02;14.48;;;3.83;;
22614;SDS011;11474;50.790;0.298;2023-02-25T08:51:28;15.07;;;4.00;;
22614;SDS011;11474;50.790;0.298;2023-02-25T08:53:58;19.42;;;4.13;;
22614;SDS011;11474;50.790;0.298;2023-02-25T08:56:25;17.23;;;4.07;;
22614;SDS011;11474;50.790;0.298;2023-02-25T08:58:51;11.50;;;4.28;;
22614;SDS011;11474;50.790;0.298;2023-02-25T09:01:18;20.98;;;4.35;;
22614;SDS011;11474;50.790;0.298;2023-02-25T09:03:45;17.05;;;4.07;;
22614;SDS011;11474;50.790;0.298;2023-02-25T09:06:15;17.65;;;4.00;;
22614;SDS011;11474;50.790;0.298;2023-02-25T09:08:41;17.48;;;4.13;;
22614;SDS011;11474;50.790;0.298;2023-02-25T09:11:07;17.02;;;3.72;;
22614;SDS011;11474;50.790;0.298;2023-02-25T09:13:33;16.33;;;3.70;;
22614;SDS011;11474;50.790;0.298;2023-02-25T09:15:59;13.32;;;4.00;;
22614;SDS011;11474;50.790;0.298;2023-02-25T09:18:26;17.67;;;4.30;;
22614;SDS011;11474;50.790;0.298;2023-02-25T09:20:52;22.13;;;4.90;;
22614;SDS011;11474;50.790;0.298;2023-02-25T09:23:18;19.33;;;4.22;;
22614;SDS011;11474;50.790;0.298;2023-02-25T09:25:45;22.88;;;4.47;;
22614;SDS011;11474;50.790;0.298;2023-02-25T09:28:11;18.83;;;3.97;;
22614;SDS011;11474;50.790;0.298;2023-02-25T09:30:37;20.10;;;4.07;;
22614;SDS011;11474;50.790;0.298;2023-02-25T09:33:03;19.25;;;4.10;;
22614;SDS011;11474;50.790;0.298;2023-02-25T09:35:29;15.13;;;3.90;;
22614;SDS011;11474;50.790;0.298;2023-02-25T09:37:56;18.25;;;4.18;;
22614;SDS011;11474;50.790;0.298;2023-02-25T09:40:23;18.02;;;3.97;;
22614;SDS011;11474;50.790;0.298;2023-02-25T09:42:56;23.00;;;4.03;;
22614;SDS011;11474;50.790;0.298;2023-02-25T09:45:29;17.83;;;3.60;;
22614;SDS011;11474;50.790;0.298;2023-02-25T09:48:00;18.55;;;4.20;;
22614;SDS011;11474;50.790;0.298;2023-02-25T09:50:27;16.83;;;3.70;;
22614;SDS011;11474;50.790;0.298;2023-02-25T09:53:05;18.75;;;4.10;;
22614;SDS011;11474;50.790;0.298;2023-02-25T09:55:35;20.73;;;4.18;;
22614;SDS011;11474;50.790;0.298;2023-02-25T09:58:04;20.50;;;4.00;;
22614;SDS011;11474;50.790;0.298;2023-02-25T10:00:34;16.52;;;3.70;;
22614;SDS011;11474;50.790;0.298;2023-02-25T10:03:11;17.25;;;3.58;;
22614;SDS011;11474;50.790;0.298;2023-02-25T10:21:51;14.82;;;3.28;;
22614;SDS011;11474;50.790;0.298;2023-02-25T10:24:33;17.42;;;3.65;;
22614;SDS011;11474;50.790;0.298;2023-02-25T10:27:03;18.13;;;3.63;;
22614;SDS011;11474;50.790;0.298;2023-02-25T10:29:37;19.17;;;3.90;;
22614;SDS011;11474;50.790;0.298;2023-02-25T10:32:20;19.23;;;3.67;;
22614;SDS011;11474;50.790;0.298;2023-02-25T10:34:47;17.33;;;3.42;;
22614;SDS011;11474;50.790;0.298;2023-02-25T10:37:19;25.52;;;4.60;;
22614;SDS011;11474;50.790;0.298;2023-02-25T10:39:46;16.80;;;3.40;;
22614;SDS011;11474;50.790;0.298;2023-02-25T10:42:14;21.77;;;3.53;;
22614;SDS011;11474;50.790;0.298;2023-02-25T10:44:41;14.13;;;3.58;;
22614;SDS011;11474;50.790;0.298;2023-02-25T10:47:08;16.80;;;3.33;;
22614;SDS011;11474;50.790;0.298;2023-02-25T10:49:36;11.82;;;2.75;;
22614;SDS011;11474;50.790;0.298;2023-02-25T10:52:06;16.67;;;3.15;;
22614;SDS011;11474;50.790;0.298;2023-02-25T10:54:49;19.15;;;3.20;;
22614;SDS011;11474;50.790;0.298;2023-02-25T10:57:17;18.93;;;3.57;;
22614;SDS011;11474;50.790;0.298;2023-02-25T10:59:43;17.98;;;3.65;;
22614;SDS011;11474;50.790;0.298;2023-02-25T11:02:26;12.05;;;3.30;;
22614;SDS011;11474;50.790;0.298;2023-02-25T11:04:54;18.02;;;3.60;;
22614;SDS011;11474;50.790;0.298;2023-02-25T11:07:34;14.52;;;3.72;;
22614;SDS011;11474;50.790;0.298;2023-02-25T11:12:40;15.23;;;3.20;;
22614;SDS011;11474;50.790;0.298;2023-02-25T11:17:51;16.00;;;3.03;;
22614;SDS011;11474;50.790;0.298;2023-02-25T11:20:22;15.45;;;3.15;;
22614;SDS011;11474;50.790;0.298;2023-02-25T11:22:52;14.88;;;2.97;;
22614;SDS011;11474;50.790;0.298;2023-02-25T11:25:19;19.13;;;3.83;;
22614;SDS011;11474;50.790;0.298;2023-02-25T11:27:47;19.98;;;3.70;;
22614;SDS011;11474;50.790;0.298;2023-02-25T11:30:19;20.63;;;3.60;;
22614;SDS011;11474;50.790;0.298;2023-02-25T11:32:49;17.35;;;3.30;;
22614;SDS011;11474;50.790;0.298;2023-02-25T11:35:27;15.82;;;3.00;;
22614;SDS011;11474;50.790;0.298;2023-02-25T11:37:54;18.65;;;3.33;;
22614;SDS011;11474;50.790;0.298;2023-02-25T11:40:23;22.35;;;3.00;;
22614;SDS011;11474;50.790;0.298;2023-02-25T11:45:32;14.70;;;2.53;;
22614;SDS011;11474;50.790;0.298;2023-02-25T11:47:59;11.50;;;2.58;;
22614;SDS011;11474;50.790;0.298;2023-02-25T11:50:43;15.30;;;3.05;;
22614;SDS011;11474;50.790;0.298;2023-02-25T11:53:28;21.67;;;3.47;;
22614;SDS011;11474;50.790;0.298;2023-02-25T11:56:02;16.30;;;3.40;;
22614;SDS011;11474;50.790;0.298;2023-02-25T12:01:33;19.23;;;3.10;;
22614;SDS011;11474;50.790;0.298;2023-02-25T12:19:33;20.42;;;3.08;;
22614;SDS011;11474;50.790;0.298;2023-02-25T12:30:05;16.00;;;2.90;;
22614;SDS011;11474;50.790;0.298;2023-02-25T12:45:43;14.20;;;3.05;;
22614;SDS011;11474;50.790;0.298;2023-02-25T12:48:35;13.07;;;2.90;;
22614;SDS011;11474;50.790;0.298;2023-02-25T12:54:52;16.80;;;3.63;;
22614;SDS011;11474;50.790;0.298;2023-02-25T13:02:18;13.60;;;2.92;;
22614;SDS011;11474;50.790;0.298;2023-02-25T13:13:19;23.98;;;3.50;;
22614;SDS011;11474;50.790;0.298;2023-02-25T13:21:13;15.63;;;3.13;;
22614;SDS011;11474;50.790;0.298;2023-02-25T13:32:08;16.83;;;3.35;;
22614;SDS011;11474;50.790;0.298;2023-02-25T13:55:21;11.02;;;2.78;;
22614;SDS011;11474;50.790;0.298;2023-02-25T13:58:12;12.75;;;2.58;;
22614;SDS011;11474;50.790;0.298;2023-02-25T14:00:46;10.77;;;2.30;;
22614;SDS011;11474;50.790;0.298;2023-02-25T14:06:13;13.18;;;2.90;;
22614;SDS011;11474;50.790;0.298;2023-02-25T14:14:13;11.25;;;2.40;;
22614;SDS011;11474;50.790;0.298;2023-02-25T14:19:28;12.20;;;2.43;;
22614;SDS011;11474;50.790;0.298;2023-02-25T14:35:12;9.75;;;2.20;;
22614;SDS011;11474;50.790;0.298;2023-02-25T14:40:28;10.10;;;2.58;;
22614;SDS011;11474;50.790;0.298;2023-02-25T14:45:27;7.33;;;2.00;;
22614;SDS011;11474;50.790;0.298;2023-02-25T14:47:58;12.82;;;2.10;;
22614;SDS011;11474;50.790;0.298;2023-02-25T14:50:30;7.63;;;2.25;;
22614;SDS011;11474;50.790;0.298;2023-02-25T15:01:32;11.75;;;2.00;;
22614;SDS011;11474;50.790;0.298;2023-02-25T15:24:43;13.00;;;2.40;;
22614;SDS011;11474;50.790;0.298;2023-02-25T15:29:56;9.93;;;2.55;;
22614;SDS011;11474;50.790;0.298;2023-02-25T15:32:24;12.35;;;2.70;;
22614;SDS011;11474;50.790;0.298;2023-02-25T15:39:55;14.40;;;2.60;;
22614;SDS011;11474;50.790;0.298;2023-02-25T15:53:07;11.57;;;3.17;;
22614;SDS011;11474;50.790;0.298;2023-02-25T15:57:59;10.30;;;2.45;;
22614;SDS011;11474;50.790;0.298;2023-02-25T16:05:57;14.27;;;2.25;;
22614;SDS011;11474;50.790;0.298;2023-02-25T16:08:26;8.38;;;2.05;;
22614;SDS011;11474;50.790;0.298;2023-02-25T16:10:53;9.52;;;2.60;;
22614;SDS011;11474;50.790;0.298;2023-02-25T16:13:24;10.57;;;2.45;;
22614;SDS011;11474;50.790;0.298;2023-02-25T16:15:51;11.73;;;2.45;;
22614;SDS011;11474;50.790;0.298;2023-02-25T16:18:24;11.00;;;2.38;;
22614;SDS011;11474;50.790;0.298;2023-02-25T16:20:57;10.18;;;2.33;;
22614;SDS011;11474;50.790;0.298;2023-02-25T16:23:24;14.07;;;2.70;;
22614;SDS011;11474;50.790;0.298;2023-02-25T16:28:55;10.50;;;2.60;;
22614;SDS011;11474;50.790;0.298;2023-02-25T16:31:23;12.82;;;2.30;;
22614;SDS011;11474;50.790;0.298;2023-02-25T16:34:02;18.05;;;3.25;;
22614;SDS011;11474;50.790;0.298;2023-02-25T16:41:26;12.43;;;2.53;;
22614;SDS011;11474;50.790;0.298;2023-02-25T16:43:53;13.55;;;2.42;;
22614;SDS011;11474;50.790;0.298;2023-02-25T16:46:20;11.77;;;2.50;;
22614;SDS011;11474;50.790;0.298;2023-02-25T16:48:48;12.67;;;2.80;;
22614;SDS011;11474;50.790;0.298;2023-02-25T16:51:18;11.50;;;2.80;;
22614;SDS011;11474;50.790;0.298;2023-02-25T16:53:45;16.02;;;2.80;;
22614;SDS011;11474;50.790;0.298;2023-02-25T16:56:14;14.48;;;2.90;;
22614;SDS011;11474;50.790;0.298;2023-02-25T16:58:46;10.27;;;3.00;;
22614;SDS011;11474;50.790;0.298;2023-02-25T17:01:22;16.35;;;2.95;;
22614;SDS011;11474;50.790;0.298;2023-02-25T17:03:49;15.88;;;3.17;;
22614;SDS011;11474;50.790;0.298;2023-02-25T17:06:16;16.38;;;3.45;;
22614;SDS011;11474;50.790;0.298;2023-02-25T17:08:43;19.03;;;3.27;;
22614;SDS011;11474;50.790;0.298;2023-02-25T17:11:09;14.90;;;2.90;;
22614;SDS011;11474;50.790;0.298;2023-02-25T17:13:39;11.02;;;2.60;;
22614;SDS011;11474;50.790;0.298;2023-02-25T17:16:06;16.73;;;2.67;;
22614;SDS011;11474;50.790;0.298;2023-02-25T17:18:44;14.90;;;3.08;;
22614;SDS011;11474;50.790;0.298;2023-02-25T17:21:16;14.07;;;2.97;;
22614;SDS011;11474;50.790;0.298;2023-02-25T17:23:45;10.15;;;2.55;;
22614;SDS011;11474;50.790;0.298;2023-02-25T17:26:12;12.23;;;2.40;;
22614;SDS011;11474;50.790;0.298;2023-02-25T17:28:39;14.13;;;2.95;;
22614;SDS011;11474;50.790;0.298;2023-02-25T17:31:24;19.35;;;2.92;;
22614;SDS011;11474;50.790;0.298;2023-02-25T17:33:52;16.80;;;3.03;;
22614;SDS011;11474;50.790;0.298;2023-02-25T17:36:19;12.13;;;2.53;;
22614;SDS011;11474;50.790;0.298;2023-02-25T17:38:46;17.40;;;3.10;;
22614;SDS011;11474;50.790;0.298;2023-02-25T17:41:15;16.85;;;3.25;;
22614;SDS011;11474;50.790;0.298;2023-02-25T17:43:42;19.85;;;3.42;;
22614;SDS011;11474;50.790;0.298;2023-02-25T17:46:16;15.55;;;3.35;;
22614;SDS011;11474;50.790;0.298;2023-02-25T17:48:52;15.53;;;3.17;;
22614;SDS011;11474;50.790;0.298;2023-02-25T17:51:26;9.80;;;2.95;;
22614;SDS011;11474;50.790;0.298;2023-02-25T17:53:57;18.80;;;3.10;;
22614;SDS011;11474;50.790;0.298;2023-02-25T17:56:26;17.45;;;3.22;;
22614;SDS011;11474;50.790;0.298;2023-02-25T17:58:57;14.77;;;3.58;;
22614;SDS011;11474;50.790;0.298;2023-02-25T18:01:24;20.15;;;3.53;;
22614;SDS011;11474;50.790;0.298;2023-02-25T18:03:51;19.87;;;3.50;;
22614;SDS011;11474;50.790;0.298;2023-02-25T18:08:58;23.80;;;3.65;;
22614;SDS011;11474;50.790;0.298;2023-02-25T18:13:53;19.00;;;3.78;;
22614;SDS011;11474;50.790;0.298;2023-02-25T18:16:32;17.03;;;3.10;;
22614;SDS011;11474;50.790;0.298;2023-02-25T18:19:00;17.42;;;3.20;;
22614;SDS011;11474;50.790;0.298;2023-02-25T18:21:27;19.67;;;3.17;;
22614;SDS011;11474;50.790;0.298;2023-02-25T18:23:53;13.05;;;2.70;;
22614;SDS011;11474;50.790;0.298;2023-02-25T18:26:20;16.00;;;3.13;;
22614;SDS011;11474;50.790;0.298;2023-02-25T18:28:48;19.38;;;2.95;;